createdAt,value
2022-08-01T00:00:48.851Z,99626.31
2022-08-01T00:03:16.504Z,99622.09
2022-08-01T00:05:45.420Z,99624.97
2022-08-01T00:08:12.852Z,99624.97
2022-08-01T00:10:40.723Z,99629.75
2022-08-01T00:13:08.118Z,99630.19
2022-08-01T00:15:37.934Z,99627.22
2022-08-01T00:18:05.631Z,99629.34
2022-08-01T00:20:33.107Z,99616.12
2022-08-01T00:23:00.506Z,99620.69
2022-08-01T00:25:34.065Z,99614.31
2022-08-01T00:28:03.975Z,99610.53
2022-08-01T00:30:32.180Z,99609.50
2022-08-01T00:32:59.808Z,99611.78
2022-08-01T00:35:27.270Z,99604.13
2022-08-01T00:37:55.279Z,99604.63
2022-08-01T00:40:22.807Z,99599.84
2022-08-01T00:42:50.379Z,99600.69
2022-08-01T00:45:18.092Z,99607.06
2022-08-01T00:47:45.494Z,99601.25
2022-08-01T00:50:13.144Z,99602.19
2022-08-01T00:52:41.439Z,99603.63
2022-08-01T00:55:10.107Z,99608.38
2022-08-01T00:58:03.454Z,99600.72
2022-08-01T01:00:30.325Z,99602.13
2022-08-01T01:03:00.517Z,99606.94
2022-08-01T01:05:27.917Z,99603.09
2022-08-01T01:08:05.955Z,99606.94
2022-08-01T01:10:40.340Z,99606.72
2022-08-01T01:13:16.239Z,99608.94
2022-08-01T01:15:46.477Z,99617.81
2022-08-01T01:18:35.363Z,99612.66
2022-08-01T01:21:15.337Z,99612.31
2022-08-01T01:24:01.107Z,99617.69
2022-08-01T01:26:34.566Z,99611.53
2022-08-01T01:29:19.236Z,99619.22
2022-08-01T01:31:53.657Z,99616.66
2022-08-01T01:34:22.458Z,99612.16
2022-08-01T01:36:53.325Z,99609.88
2022-08-01T01:39:21.497Z,99611.28
2022-08-01T01:41:49.568Z,99606.03
2022-08-01T01:44:18.330Z,99598.34
2022-08-01T01:46:46.506Z,99603.31
2022-08-01T01:49:14.660Z,99600.09
2022-08-01T01:51:43.335Z,99605.25
2022-08-01T01:54:30.233Z,99603.84
2022-08-01T01:56:59.541Z,99595.38
2022-08-01T01:59:28.582Z,99601.19
2022-08-01T02:02:05.781Z,99600.94
2022-08-01T02:04:43.618Z,99599.25
2022-08-01T02:07:18.776Z,99587.63
2022-08-01T02:09:47.232Z,99591.69
2022-08-01T02:12:16.401Z,99589.28
2022-08-01T02:14:45.968Z,99593.50
2022-08-01T02:17:17.574Z,99584.13
2022-08-01T02:19:45.702Z,99584.00
2022-08-01T02:22:21.083Z,99571.53
2022-08-01T02:24:56.604Z,99572.66
2022-08-01T02:27:42.719Z,99578.78
2022-08-01T02:30:12.367Z,99575.34
2022-08-01T02:32:43.880Z,99578.19
2022-08-01T02:35:15.145Z,99576.16
2022-08-01T02:37:45.098Z,99576.97
2022-08-01T02:40:15.389Z,99571.69
2022-08-01T02:42:49.796Z,99576.78
2022-08-01T02:45:20.439Z,99582.31
2022-08-01T02:47:48.507Z,99581.09
2022-08-01T02:50:17.758Z,99581.28
2022-08-01T02:52:48.578Z,99570.22
2022-08-01T02:55:16.097Z,99563.75
2022-08-01T02:57:52.238Z,99565.72
2022-08-01T03:00:22.467Z,99564.63
2022-08-01T03:02:54.841Z,99563.31
2022-08-01T03:05:23.858Z,99558.00
2022-08-01T03:07:53.396Z,99562.47
2022-08-01T03:10:21.129Z,99559.13
2022-08-01T03:12:49.824Z,99556.38
2022-08-01T03:15:18.234Z,99557.47
2022-08-01T03:17:46.866Z,99556.56
2022-08-01T03:20:16.553Z,99556.88
2022-08-01T03:22:44.826Z,99561.66
2022-08-01T03:25:13.742Z,99557.78
2022-08-01T03:27:43.431Z,99551.31
2022-08-01T03:30:11.609Z,99557.78
2022-08-01T03:32:39.482Z,99552.97
2022-08-01T03:35:07.927Z,99553.97
2022-08-01T03:38:13.186Z,99555.66
2022-08-01T03:40:40.388Z,99547.78
2022-08-01T03:43:12.654Z,99551.00
2022-08-01T03:45:42.710Z,99554.56
2022-08-01T03:48:12.716Z,99555.69
2022-08-01T03:50:45.537Z,99560.88
2022-08-01T03:53:13.557Z,99561.50
2022-08-01T03:55:42.682Z,99561.88
2022-08-01T03:58:11.133Z,99564.63
2022-08-01T04:00:42.426Z,99567.78
2022-08-01T04:03:11.437Z,99577.53
2022-08-01T04:05:42.293Z,99577.22
2022-08-01T04:08:10.079Z,99580.78
2022-08-01T04:10:38.202Z,99569.88
2022-08-01T04:13:05.612Z,99586.53
2022-08-01T04:15:33.333Z,99576.66
2022-08-01T04:18:00.736Z,99589.78
2022-08-01T04:20:28.192Z,99582.84
2022-08-01T04:22:56.025Z,99589.41
2022-08-01T04:25:27.840Z,99584.84
2022-08-01T04:27:55.673Z,99584.38
2022-08-01T04:30:31.071Z,99588.78
2022-08-01T04:33:00.295Z,99587.91
2022-08-01T04:36:02.740Z,99589.97
2022-08-01T04:38:22.172Z,99586.69
2022-08-01T04:40:52.565Z,99591.53
2022-08-01T04:43:20.006Z,99580.03
2022-08-01T04:45:48.432Z,99578.22
2022-08-01T04:48:18.472Z,99582.06
2022-08-01T04:50:46.388Z,99586.72
2022-08-01T04:53:18.597Z,99587.44
2022-08-01T04:55:47.131Z,99589.09
2022-08-01T04:58:18.614Z,99588.94
2022-08-01T05:00:47.496Z,99575.69
2022-08-01T05:03:15.184Z,99583.44
2022-08-01T05:05:42.610Z,99592.41
2022-08-01T05:08:11.144Z,99587.66
2022-08-01T05:10:38.597Z,99590.16
2022-08-01T05:13:07.549Z,99586.00
2022-08-01T05:15:38.151Z,99593.75
2022-08-01T05:18:07.627Z,99591.25
2022-08-01T05:20:38.102Z,99590.59
2022-08-01T05:23:06.178Z,99582.19
2022-08-01T05:25:54.337Z,99585.12
2022-08-01T05:28:22.012Z,99589.13
2022-08-01T05:30:49.423Z,99585.09
2022-08-01T05:33:16.832Z,99594.31
2022-08-01T05:35:48.321Z,99591.22
2022-08-01T05:38:17.006Z,99584.81
2022-08-01T05:40:44.693Z,99585.59
2022-08-01T05:43:12.156Z,99584.09
2022-08-01T05:45:39.561Z,99591.81
2022-08-01T05:48:07.279Z,99586.31
2022-08-01T05:50:34.956Z,99598.31
2022-08-01T05:53:02.350Z,99582.31
2022-08-01T05:55:30.073Z,99589.97
2022-08-01T05:57:57.445Z,99590.91
2022-08-01T06:00:24.842Z,99582.50
2022-08-01T06:02:52.508Z,99588.03
2022-08-01T06:05:20.033Z,99578.78
2022-08-01T06:07:47.425Z,99593.81
2022-08-01T06:10:15.118Z,99588.72
2022-08-01T06:12:42.587Z,99596.09
2022-08-01T06:15:10.408Z,99599.94
2022-08-01T06:17:38.099Z,99603.13
2022-08-01T06:20:07.212Z,99610.00
2022-08-01T06:22:34.677Z,99612.41
2022-08-01T06:25:02.502Z,99596.72
2022-08-01T06:27:29.981Z,99604.09
2022-08-01T06:29:58.091Z,99603.28
2022-08-01T06:32:27.976Z,99600.50
2022-08-01T06:34:56.405Z,99603.72
2022-08-01T06:37:24.455Z,99602.03
2022-08-01T06:39:52.311Z,99603.38
2022-08-01T06:42:19.777Z,99606.53
2022-08-01T06:44:47.240Z,99598.13
2022-08-01T06:47:14.881Z,99596.50
2022-08-01T06:49:42.258Z,99602.44
2022-08-01T06:52:09.954Z,99605.37
2022-08-01T06:54:37.844Z,99608.44
2022-08-01T06:57:08.296Z,99603.97
2022-08-01T06:59:35.700Z,99602.41
2022-08-01T07:02:03.999Z,99608.72
2022-08-01T07:04:31.862Z,99599.13
2022-08-01T07:06:59.258Z,99599.28
2022-08-01T07:09:27.460Z,99600.13
2022-08-01T07:11:55.479Z,99592.81
2022-08-01T07:14:23.163Z,99594.09
2022-08-01T07:16:51.261Z,99594.44
2022-08-01T07:19:19.079Z,99598.19
2022-08-01T07:21:46.558Z,99599.00
2022-08-01T07:24:20.885Z,99596.03
2022-08-01T07:26:53.805Z,99599.63
2022-08-01T07:29:23.965Z,99596.31
2022-08-01T07:31:56.211Z,99584.69
2022-08-01T07:34:24.534Z,99596.16
2022-08-01T07:36:52.590Z,99599.00
2022-08-01T07:39:20.298Z,99605.25
2022-08-01T07:42:06.503Z,99605.13
2022-08-01T07:44:36.455Z,99605.47
2022-08-01T07:47:05.097Z,99602.72
2022-08-01T07:49:37.481Z,99598.94
2022-08-01T07:52:07.932Z,99599.09
2022-08-01T07:54:35.481Z,99601.09
2022-08-01T07:57:03.830Z,99603.75
2022-08-01T07:59:31.892Z,99607.06
2022-08-01T08:01:59.454Z,99608.34
2022-08-01T08:04:28.088Z,99605.22
2022-08-01T08:06:55.666Z,99593.94
2022-08-01T08:09:23.957Z,99596.84
2022-08-01T08:11:51.892Z,99600.22
2022-08-01T08:14:19.829Z,99601.50
2022-08-01T08:16:47.247Z,99608.75
2022-08-01T08:19:15.003Z,99608.91
2022-08-01T08:21:42.556Z,99600.69
2022-08-01T08:24:26.895Z,99606.63
2022-08-01T08:26:59.850Z,99607.88
2022-08-01T08:29:28.154Z,99613.03
2022-08-01T08:31:57.002Z,99614.22
2022-08-01T08:34:25.406Z,99613.06
2022-08-01T08:36:53.350Z,99622.13
2022-08-01T08:39:21.484Z,99619.09
2022-08-01T08:41:50.197Z,99616.84
2022-08-01T08:44:18.721Z,99628.94
2022-08-01T08:46:56.021Z,99633.78
2022-08-01T08:49:26.429Z,99626.91
2022-08-01T08:51:54.908Z,99626.72
2022-08-01T08:54:29.146Z,99632.06
2022-08-01T08:57:02.716Z,99630.03
2022-08-01T08:59:30.554Z,99632.63
2022-08-01T09:01:59.449Z,99633.44
2022-08-01T09:04:27.516Z,99631.38
2022-08-01T09:06:55.867Z,99626.53
2022-08-01T09:09:24.236Z,99635.41
2022-08-01T09:11:57.678Z,99631.16
2022-08-01T09:14:31.048Z,99634.34
2022-08-01T09:17:01.973Z,99627.06
2022-08-01T09:19:41.919Z,99634.22
2022-08-01T09:22:15.350Z,99634.47
2022-08-01T09:24:42.742Z,99635.22
2022-08-01T09:27:19.780Z,99631.06
2022-08-01T09:30:00.988Z,99633.31
2022-08-01T09:32:35.106Z,99637.56
2022-08-01T09:35:23.553Z,99623.41
2022-08-01T09:37:51.372Z,99629.84
2022-08-01T09:40:18.847Z,99621.16
2022-08-01T09:42:52.650Z,99622.22
2022-08-01T09:45:41.781Z,99623.56
2022-08-01T09:48:13.102Z,99627.66
2022-08-01T09:50:45.236Z,99635.81
2022-08-01T09:53:29.394Z,99623.47
2022-08-01T09:56:12.762Z,99623.22
2022-08-01T09:59:06.823Z,99622.88
2022-08-01T10:01:47.829Z,99620.94
2022-08-01T10:04:21.265Z,99618.13
2022-08-01T10:06:53.535Z,99614.47
2022-08-01T10:09:39.625Z,99615.25
2022-08-01T10:12:09.181Z,99612.78
2022-08-01T10:14:46.799Z,99612.63
2022-08-01T10:17:19.556Z,99619.56
2022-08-01T10:19:50.610Z,99616.88
2022-08-01T10:22:19.401Z,99623.12
2022-08-01T10:24:48.577Z,99621.81
2022-08-01T10:27:21.465Z,99609.09
2022-08-01T10:30:15.544Z,99612.03
2022-08-01T10:32:53.163Z,99616.12
2022-08-01T10:35:45.614Z,99609.38
2022-08-01T10:38:13.590Z,99602.22
2022-08-01T10:40:43.080Z,99604.09
2022-08-01T10:43:11.977Z,99603.50
2022-08-01T10:45:40.302Z,99601.03
2022-08-01T10:48:16.346Z,99603.03
2022-08-01T10:50:53.809Z,99593.41
2022-08-01T10:53:31.492Z,99601.28
2022-08-01T10:56:12.704Z,99603.50
2022-08-01T10:58:44.416Z,99591.94
2022-08-01T11:01:33.350Z,99594.16
2022-08-01T11:04:01.450Z,99590.09
2022-08-01T11:06:35.215Z,99586.97
2022-08-01T11:09:06.556Z,99588.09
2022-08-01T11:11:58.353Z,99587.69
2022-08-01T11:14:26.479Z,99580.94
2022-08-01T11:17:37.955Z,99583.84
2022-08-01T11:20:19.340Z,99573.16
2022-08-01T11:23:17.473Z,99568.22
2022-08-01T11:26:05.284Z,99576.44
2022-08-01T11:28:35.745Z,99570.22
2022-08-01T11:31:14.082Z,99566.19
2022-08-01T11:33:48.661Z,99574.78
2022-08-01T11:36:36.952Z,99574.13
2022-08-01T11:39:13.105Z,99569.03
2022-08-01T11:41:42.254Z,99575.25
2022-08-01T11:44:24.873Z,99567.56
2022-08-01T11:47:00.155Z,99570.00
2022-08-01T11:49:38.715Z,99563.72
2022-08-01T11:52:08.981Z,99568.00
2022-08-01T11:54:42.482Z,99562.91
2022-08-01T11:57:38.929Z,99563.22
2022-08-01T12:00:15.319Z,99563.06
2022-08-01T12:02:46.484Z,99558.19
2022-08-01T12:05:16.021Z,99574.78
2022-08-01T12:07:45.869Z,99570.69
2022-08-01T12:10:16.492Z,99571.16
2022-08-01T12:12:46.866Z,99581.72
2022-08-01T12:15:15.455Z,99589.16
2022-08-01T12:17:45.847Z,99567.16
2022-08-01T12:20:30.024Z,99573.97
2022-08-01T12:23:00.651Z,99567.88
2022-08-01T12:25:29.058Z,99572.38
2022-08-01T12:28:01.350Z,99561.63
2022-08-01T12:30:31.762Z,99566.44
2022-08-01T12:32:59.373Z,99563.16
2022-08-01T12:35:28.568Z,99564.59
2022-08-01T12:37:58.865Z,99562.84
2022-08-01T12:40:29.118Z,99559.72
2022-08-01T12:43:03.319Z,99553.56
2022-08-01T12:45:57.087Z,99548.88
2022-08-01T12:48:26.705Z,99553.84
2022-08-01T12:50:54.644Z,99558.03
2022-08-01T12:53:22.741Z,99555.44
2022-08-01T12:55:58.680Z,99554.13
2022-08-01T12:58:34.240Z,99551.09
2022-08-01T13:01:13.092Z,99550.44
2022-08-01T13:03:41.109Z,99560.53
2022-08-01T13:06:17.450Z,99555.69
2022-08-01T13:08:46.038Z,99552.75
2022-08-01T13:11:16.000Z,99545.72
2022-08-01T13:13:49.318Z,99548.44
2022-08-01T13:16:31.243Z,99552.41
2022-08-01T13:19:06.616Z,99547.94
2022-08-01T13:21:53.796Z,99551.81
2022-08-01T13:24:27.575Z,99552.47
2022-08-01T13:26:59.524Z,99545.53
2022-08-01T13:29:33.138Z,99547.75
2022-08-01T13:32:02.412Z,99541.06
2022-08-01T13:34:34.366Z,99550.94
2022-08-01T13:37:02.856Z,99546.25
2022-08-01T13:39:41.375Z,99545.09
2022-08-01T13:42:10.394Z,99544.41
2022-08-01T13:44:37.984Z,99538.19
2022-08-01T13:47:15.488Z,99544.13
2022-08-01T13:49:44.562Z,99528.34
2022-08-01T13:52:12.199Z,99539.25
2022-08-01T13:54:39.647Z,99533.88
2022-08-01T13:57:07.297Z,99528.81
2022-08-01T13:59:34.703Z,99527.75
2022-08-01T14:02:02.359Z,99531.31
2022-08-01T14:04:30.043Z,99526.91
2022-08-01T14:06:57.436Z,99519.03
2022-08-01T14:09:26.266Z,99520.47
2022-08-01T14:12:00.258Z,99516.62
2022-08-01T14:14:28.185Z,99517.53
2022-08-01T14:16:55.556Z,99513.84
2022-08-01T14:19:38.483Z,99511.22
2022-08-01T14:22:06.586Z,99515.06
2022-08-01T14:24:34.397Z,99515.63
2022-08-01T14:27:03.115Z,99518.75
2022-08-01T14:30:01.129Z,99511.16
2022-08-01T14:32:18.119Z,99515.97
2022-08-01T14:34:49.663Z,99524.47
2022-08-01T14:37:17.047Z,99526.09
2022-08-01T14:39:53.483Z,99515.53
2022-08-01T14:42:22.055Z,99522.16
2022-08-01T14:44:50.169Z,99523.72
2022-08-01T14:47:21.920Z,99518.38
2022-08-01T14:49:51.190Z,99517.38
2022-08-01T14:52:19.001Z,99525.69
2022-08-01T14:54:46.448Z,99522.03
2022-08-01T14:57:14.401Z,99517.31
2022-08-01T14:59:41.808Z,99526.47
2022-08-01T15:02:11.511Z,99525.59
2022-08-01T15:04:39.205Z,99521.37
2022-08-01T15:07:06.583Z,99521.78
2022-08-01T15:09:33.981Z,99517.78
2022-08-01T15:12:01.642Z,99513.97
2022-08-01T15:14:47.326Z,99528.59
2022-08-01T15:17:35.209Z,99528.19
2022-08-01T15:20:07.125Z,99529.41
2022-08-01T15:22:34.822Z,99527.63
2022-08-01T15:25:03.957Z,99523.47
2022-08-01T15:27:31.437Z,99526.97
2022-08-01T15:29:59.203Z,99523.69
2022-08-01T15:32:26.607Z,99531.84
2022-08-01T15:34:54.033Z,99535.72
2022-08-01T15:37:22.901Z,99542.97
2022-08-01T15:39:50.411Z,99532.78
2022-08-01T15:42:26.681Z,99527.75
2022-08-01T15:44:55.023Z,99529.31
2022-08-01T15:47:24.827Z,99533.63
2022-08-01T15:49:52.803Z,99531.69
2022-08-01T15:52:21.914Z,99535.00
2022-08-01T15:54:50.624Z,99535.22
2022-08-01T15:57:20.746Z,99538.34
2022-08-01T15:59:48.177Z,99535.34
2022-08-01T16:02:15.924Z,99528.78
2022-08-01T16:04:43.663Z,99527.81
2022-08-01T16:07:11.579Z,99521.87
2022-08-01T16:09:39.108Z,99518.88
2022-08-01T16:12:07.408Z,99517.59
2022-08-01T16:14:34.982Z,99520.78
2022-08-01T16:17:02.365Z,99533.00
2022-08-01T16:19:30.048Z,99531.16
2022-08-01T16:21:57.420Z,99534.22
2022-08-01T16:24:29.072Z,99530.50
2022-08-01T16:26:57.009Z,99532.75
2022-08-01T16:29:25.718Z,99535.66
2022-08-01T16:32:00.518Z,99526.97
2022-08-01T16:34:41.987Z,99534.72
2022-08-01T16:37:15.099Z,99536.06
2022-08-01T16:39:42.756Z,99535.22
2022-08-01T16:42:10.641Z,99529.75
2022-08-01T16:44:38.282Z,99532.50
2022-08-01T16:47:06.334Z,99530.06
2022-08-01T16:49:36.856Z,99518.22
2022-08-01T16:52:05.130Z,99527.09
2022-08-01T16:54:33.259Z,99528.34
2022-08-01T16:57:08.229Z,99522.53
2022-08-01T16:59:41.886Z,99528.37
2022-08-01T17:02:10.871Z,99531.59
2022-08-01T17:04:38.727Z,99534.88
2022-08-01T17:07:06.696Z,99538.22
2022-08-01T17:09:34.325Z,99531.44
2022-08-01T17:12:02.012Z,99533.50
2022-08-01T17:14:29.748Z,99535.22
2022-08-01T17:16:57.142Z,99534.66
2022-08-01T17:19:26.883Z,99533.34
2022-08-01T17:22:01.028Z,99537.03
2022-08-01T17:24:28.718Z,99544.56
2022-08-01T17:26:56.154Z,99536.91
2022-08-01T17:29:23.711Z,99552.56
2022-08-01T17:31:51.392Z,99547.47
2022-08-01T17:34:18.942Z,99554.25
2022-08-01T17:36:46.339Z,99556.97
2022-08-01T17:39:14.205Z,99558.41
2022-08-01T17:41:41.794Z,99557.50
2022-08-01T17:44:09.865Z,99560.75
2022-08-01T17:46:37.663Z,99554.38
2022-08-01T17:49:06.059Z,99557.59
2022-08-01T17:51:33.493Z,99560.47
2022-08-01T17:54:01.164Z,99555.50
2022-08-01T17:56:28.884Z,99555.12
2022-08-01T17:58:56.490Z,99556.94
2022-08-01T18:01:27.012Z,99568.44
2022-08-01T18:03:57.556Z,99568.16
2022-08-01T18:06:25.656Z,99567.03
2022-08-01T18:08:55.517Z,99565.13
2022-08-01T18:11:24.518Z,99560.81
2022-08-01T18:13:52.303Z,99565.81
2022-08-01T18:16:19.716Z,99567.09
2022-08-01T18:18:47.392Z,99563.84
2022-08-01T18:21:14.781Z,99571.03
2022-08-01T18:23:51.055Z,99567.56
2022-08-01T18:26:22.814Z,99565.78
2022-08-01T18:28:50.472Z,99573.38
2022-08-01T18:31:20.267Z,99572.81
2022-08-01T18:33:48.370Z,99575.31
2022-08-01T18:36:30.720Z,99581.78
2022-08-01T18:39:00.465Z,99578.81
2022-08-01T18:41:29.265Z,99592.16
2022-08-01T18:44:07.383Z,99589.91
2022-08-01T18:46:39.883Z,99585.06
2022-08-01T18:49:09.657Z,99597.69
2022-08-01T18:51:43.534Z,99598.97
2022-08-01T18:54:12.537Z,99600.31
2022-08-01T18:56:40.810Z,99602.19
2022-08-01T18:59:08.262Z,99600.59
2022-08-01T19:01:36.206Z,99601.09
2022-08-01T19:04:03.946Z,99608.66
2022-08-01T19:06:31.515Z,99599.44
2022-08-01T19:09:02.409Z,99613.28
2022-08-01T19:11:31.632Z,99620.03
2022-08-01T19:13:59.185Z,99612.53
2022-08-01T19:16:27.508Z,99632.06
2022-08-01T19:18:55.697Z,99625.09
2022-08-01T19:21:25.152Z,99639.09
2022-08-01T19:24:11.213Z,99631.19
2022-08-01T19:26:40.419Z,99632.91
2022-08-01T19:29:12.003Z,99635.25
2022-08-01T19:31:43.300Z,99638.03
2022-08-01T19:34:15.080Z,99629.56
2022-08-01T19:36:44.999Z,99638.47
2022-08-01T19:39:12.569Z,99644.41
2022-08-01T19:41:40.984Z,99637.19
2022-08-01T19:44:12.098Z,99651.03
2022-08-01T19:46:40.912Z,99640.94
2022-08-01T19:49:09.322Z,99641.59
2022-08-01T19:51:41.142Z,99641.16
2022-08-01T19:54:10.873Z,99648.13
2022-08-01T19:56:44.411Z,99643.78
2022-08-01T19:59:20.272Z,99641.44
2022-08-01T20:01:48.896Z,99636.97
2022-08-01T20:04:17.113Z,99639.66
2022-08-01T20:06:45.484Z,99639.69
2022-08-01T20:09:13.513Z,99635.81
2022-08-01T20:11:46.425Z,99633.22
2022-08-01T20:14:16.226Z,99640.28
2022-08-01T20:16:44.234Z,99638.41
2022-08-01T20:19:11.746Z,99644.88
2022-08-01T20:21:40.655Z,99636.34
2022-08-01T20:24:11.200Z,99640.97
2022-08-01T20:26:40.019Z,99643.37
2022-08-01T20:29:07.994Z,99642.94
2022-08-01T20:31:44.094Z,99636.16
2022-08-01T20:34:15.881Z,99636.88
2022-08-01T20:36:54.727Z,99645.50
2022-08-01T20:39:26.622Z,99648.81
2022-08-01T20:42:00.162Z,99642.34
2022-08-01T20:44:31.755Z,99645.50
2022-08-01T20:47:01.491Z,99652.19
2022-08-01T20:49:30.982Z,99645.84
2022-08-01T20:51:58.899Z,99659.47
2022-08-01T20:54:27.236Z,99657.94
2022-08-01T20:57:07.631Z,99657.87
2022-08-01T20:59:56.535Z,99650.41
2022-08-01T21:02:51.372Z,99654.31
2022-08-01T21:05:27.471Z,99658.59
2022-08-01T21:08:23.111Z,99657.44
2022-08-01T21:10:55.933Z,99652.25
2022-08-01T21:13:29.638Z,99660.00
2022-08-01T21:16:24.092Z,99654.22
2022-08-01T21:19:16.827Z,99655.59
2022-08-01T21:21:55.550Z,99655.03
2022-08-01T21:24:27.381Z,99652.47
2022-08-01T21:26:55.090Z,99655.88
2022-08-01T21:29:24.336Z,99650.63
2022-08-01T21:32:11.529Z,99658.25
2022-08-01T21:34:39.797Z,99650.19
2022-08-01T21:37:08.573Z,99650.53
2022-08-01T21:39:37.380Z,99650.31
2022-08-01T21:42:08.946Z,99656.16
2022-08-01T21:44:38.950Z,99657.78
2022-08-01T21:47:11.668Z,99654.94
2022-08-01T21:49:40.939Z,99660.81
2022-08-01T21:52:18.337Z,99661.28
2022-08-01T21:55:05.143Z,99662.62
2022-08-01T21:57:53.675Z,99661.62
2022-08-01T22:00:25.386Z,99656.53
2022-08-01T22:03:30.895Z,99654.09
2022-08-01T22:05:58.745Z,99662.66
2022-08-01T22:08:34.149Z,99665.06
2022-08-01T22:11:07.118Z,99664.75
2022-08-01T22:13:35.653Z,99658.28
2022-08-01T22:16:05.005Z,99657.59
2022-08-01T22:18:33.885Z,99660.34
2022-08-01T22:21:03.012Z,99657.56
2022-08-01T22:23:35.074Z,99660.81
2022-08-01T22:26:06.646Z,99667.53
2022-08-01T22:28:35.402Z,99659.66
2022-08-01T22:31:03.646Z,99668.91
2022-08-01T22:33:31.259Z,99663.38
2022-08-01T22:35:58.739Z,99665.44
2022-08-01T22:38:27.365Z,99661.84
2022-08-01T22:41:01.654Z,99669.41
2022-08-01T22:43:42.567Z,99674.81
2022-08-01T22:46:27.795Z,99683.47
2022-08-01T22:49:09.076Z,99680.47
2022-08-01T22:51:58.441Z,99668.56
2022-08-01T22:54:34.734Z,99683.03
2022-08-01T22:57:07.189Z,99671.44
2022-08-01T22:59:48.697Z,99668.44
2022-08-01T23:02:17.130Z,99669.28
2022-08-01T23:04:47.693Z,99669.50
2022-08-01T23:07:24.450Z,99667.00
2022-08-01T23:09:54.811Z,99671.44
2022-08-01T23:12:24.489Z,99673.91
2022-08-01T23:14:57.345Z,99678.34
2022-08-01T23:17:28.953Z,99673.50
2022-08-01T23:19:59.916Z,99678.34
2022-08-01T23:22:33.250Z,99681.78
2022-08-01T23:25:06.236Z,99677.47
2022-08-01T23:27:52.094Z,99679.72
2022-08-01T23:30:30.334Z,99681.09
2022-08-01T23:32:58.442Z,99680.84
2022-08-01T23:35:26.535Z,99677.34
2022-08-01T23:37:58.359Z,99684.50
2022-08-01T23:40:29.337Z,99689.09
2022-08-01T23:42:57.096Z,99684.16
2022-08-01T23:45:24.538Z,99680.87
2022-08-01T23:47:52.274Z,99682.75
2022-08-01T23:50:22.075Z,99682.19
2022-08-01T23:52:53.531Z,99677.91
2022-08-01T23:55:29.815Z,99677.56
2022-08-01T23:58:06.725Z,99673.59
